Time;durP1;ratioP1;P1;durP2;ratioP2;P2;SDS_P1;SDS_P2;PMS_P1;PMS_P2;Temp;Humidity;BMP_temperature;BMP_pressure;BME280_temperature;BME280_humidity;BME280_pressure;Samples;Min_cycle;Max_cycle;Signal;HPM_P1;HPM_P2
2023/03/28 00:00:29;;;;;;;2.58;1.00;;;;;;;;;;4910982;29;20084;-77
2023/03/28 00:02:55;;;;;;;1.80;0.90;;;;;;;;;;4908584;29;20028;-78
2023/03/28 00:05:22;;;;;;;4.93;0.90;;;;;;;;;;4912705;29;20029;-77
2023/03/28 00:07:49;;;;;;;2.42;0.98;;;;;;;;;;4917485;29;20035;-79
2023/03/28 00:10:16;;;;;;;2.80;0.90;;;;;;;;;;4911451;29;20127;-79
2023/03/28 00:12:42;;;;;;;2.65;1.00;;;;;;;;;;4918902;29;20036;-79
2023/03/28 00:15:08;;;;;;;1.95;0.90;;;;;;;;;;4918516;29;20516;-79
2023/03/28 00:17:34;;;;;;;3.95;1.20;;;;;;;;;;4910792;29;20035;-79
2023/03/28 00:20:03;;;;;;;1.95;1.08;;;;;;;;;;4913863;29;20025;-79
2023/03/28 00:22:30;;;;;;;2.42;0.90;;;;;;;;;;4917468;29;20024;-77
2023/03/28 00:24:57;;;;;;;2.88;1.00;;;;;;;;;;4918313;29;20028;-77
2023/03/28 00:27:23;;;;;;;3.13;1.08;;;;;;;;;;4919088;29;20403;-77
2023/03/28 00:29:50;;;;;;;2.10;0.80;;;;;;;;;;4910995;29;20103;-77
2023/03/28 00:32:16;;;;;;;2.45;0.90;;;;;;;;;;4910318;29;20561;-77
2023/03/28 00:34:42;;;;;;;2.38;0.88;;;;;;;;;;4918192;29;20032;-78
2023/03/28 00:37:16;;;;;;;1.95;1.00;;;;;;;;;;4914108;29;20043;-78
2023/03/28 00:39:42;;;;;;;2.55;0.93;;;;;;;;;;4911447;29;20020;-78
2023/03/28 00:42:12;;;;;;;2.88;0.90;;;;;;;;;;4909501;29;20032;-77
2023/03/28 00:44:46;;;;;;;3.22;1.05;;;;;;;;;;4910521;29;20036;-78
2023/03/28 00:47:16;;;;;;;1.70;0.82;;;;;;;;;;4914548;29;20060;-77
2023/03/28 00:49:43;;;;;;;1.42;0.90;;;;;;;;;;4912568;29;20050;-77
2023/03/28 00:52:12;;;;;;;2.00;1.00;;;;;;;;;;4915096;29;20024;-77
2023/03/28 00:54:39;;;;;;;3.50;1.17;;;;;;;;;;4909953;29;20413;-76
2023/03/28 00:57:05;;;;;;;1.85;0.90;;;;;;;;;;4907676;29;20458;-75
2023/03/28 00:59:33;;;;;;;5.43;1.30;;;;;;;;;;4919268;29;20052;-76
2023/03/28 01:01:59;;;;;;;2.13;0.88;;;;;;;;;;4914408;29;20047;-76
2023/03/28 01:04:32;;;;;;;3.55;0.93;;;;;;;;;;4914730;29;20116;-77
2023/03/28 01:06:58;;;;;;;1.83;0.93;;;;;;;;;;4916570;29;20035;-76
2023/03/28 01:09:24;;;;;;;3.85;1.00;;;;;;;;;;4910073;29;20039;-76
2023/03/28 01:11:51;;;;;;;3.45;1.05;;;;;;;;;;4915980;29;20024;-76
2023/03/28 01:14:19;;;;;;;3.88;1.10;;;;;;;;;;4917330;29;20393;-75
2023/03/28 01:16:46;;;;;;;2.00;1.00;;;;;;;;;;4913427;29;20031;-76
2023/03/28 01:19:15;;;;;;;1.77;0.98;;;;;;;;;;4917958;29;20472;-76
2023/03/28 01:22:07;;;;;;;5.10;1.15;;;;;;;;;;4920700;29;20028;-76
2023/03/28 01:24:52;;;;;;;1.55;0.82;;;;;;;;;;4897560;29;20051;-77
2023/03/28 01:27:35;;;;;;;3.08;0.80;;;;;;;;;;4918597;29;20107;-76
2023/03/28 01:30:06;;;;;;;2.80;1.00;;;;;;;;;;4917838;29;20479;-76
2023/03/28 01:32:55;;;;;;;2.35;1.00;;;;;;;;;;4915517;29;20035;-76
2023/03/28 01:35:32;;;;;;;1.60;0.82;;;;;;;;;;4910307;29;20025;-76
2023/03/28 01:38:08;;;;;;;2.53;1.00;;;;;;;;;;4902550;29;20024;-77
2023/03/28 01:40:40;;;;;;;1.25;0.82;;;;;;;;;;4907747;29;20389;-76
2023/03/28 01:43:25;;;;;;;1.30;0.98;;;;;;;;;;4911555;29;20024;-77
2023/03/28 01:45:56;;;;;;;1.10;0.75;;;;;;;;;;4920152;29;20035;-76
2023/03/28 01:48:29;;;;;;;1.50;1.00;;;;;;;;;;4914600;29;20420;-78
2023/03/28 01:51:14;;;;;;;2.37;0.80;;;;;;;;;;4915444;29;20028;-78
2023/03/28 01:53:46;;;;;;;1.92;0.90;;;;;;;;;;4914791;29;20031;-77
2023/03/28 01:56:12;;;;;;;3.22;1.00;;;;;;;;;;4919658;29;20051;-77
2023/03/28 01:59:04;;;;;;;2.90;0.80;;;;;;;;;;4911060;29;20036;-77
2023/03/28 02:01:37;;;;;;;2.13;0.80;;;;;;;;;;4892274;29;20055;-77
2023/03/28 02:04:06;;;;;;;3.03;0.80;;;;;;;;;;4919816;29;20073;-77
2023/03/28 02:06:33;;;;;;;3.30;1.23;;;;;;;;;;4911347;29;20489;-79
2023/03/28 02:09:00;;;;;;;3.75;1.00;;;;;;;;;;4916663;29;20096;-79
2023/03/28 02:11:27;;;;;;;2.83;1.13;;;;;;;;;;4917806;29;20035;-79
2023/03/28 02:13:55;;;;;;;2.15;1.08;;;;;;;;;;4919460;29;20039;-79
2023/03/28 02:16:22;;;;;;;1.70;0.80;;;;;;;;;;4913232;29;20060;-79
2023/03/28 02:18:54;;;;;;;2.67;1.23;;;;;;;;;;4915690;29;20103;-79
2023/03/28 02:21:23;;;;;;;2.40;0.73;;;;;;;;;;4911015;29;20020;-78
2023/03/28 02:23:53;;;;;;;2.22;0.82;;;;;;;;;;4913284;29;20033;-78
2023/03/28 02:26:20;;;;;;;3.58;1.00;;;;;;;;;;4920088;29;20123;-78
2023/03/28 02:28:47;;;;;;;1.73;0.73;;;;;;;;;;4917619;29;20063;-79
2023/03/28 02:31:14;;;;;;;2.28;1.20;;;;;;;;;;4916790;29;20131;-80
2023/03/28 02:33:41;;;;;;;2.28;0.82;;;;;;;;;;4914244;29;20116;-79
2023/03/28 02:36:16;;;;;;;3.13;1.05;;;;;;;;;;4921844;29;20497;-77
2023/03/28 02:39:01;;;;;;;2.65;1.13;;;;;;;;;;4919878;29;20032;-77
2023/03/28 02:41:27;;;;;;;3.85;1.10;;;;;;;;;;4912904;29;20028;-76
2023/03/28 02:44:12;;;;;;;3.65;1.33;;;;;;;;;;4919366;29;20042;-76
2023/03/28 02:46:54;;;;;;;3.03;1.20;;;;;;;;;;4915749;29;20063;-77
2023/03/28 02:49:20;;;;;;;3.97;1.05;;;;;;;;;;4917118;29;20060;-77
2023/03/28 02:51:49;;;;;;;4.60;1.35;;;;;;;;;;4919295;29;20070;-76
2023/03/28 02:54:21;;;;;;;2.63;0.93;;;;;;;;;;4913496;29;20068;-76
2023/03/28 02:57:17;;;;;;;3.08;1.00;;;;;;;;;;4922805;29;20436;-76
2023/03/28 02:59:43;;;;;;;2.35;1.05;;;;;;;;;;4911568;29;20044;-76
2023/03/28 03:02:10;;;;;;;2.00;0.95;;;;;;;;;;4919696;29;20072;-76
2023/03/28 03:04:36;;;;;;;1.95;0.90;;;;;;;;;;4911325;29;20028;-76
2023/03/28 03:07:02;;;;;;;1.92;0.80;;;;;;;;;;4911552;29;20393;-77
2023/03/28 03:09:28;;;;;;;2.95;0.80;;;;;;;;;;4909445;29;20028;-77
2023/03/28 03:11:54;;;;;;;2.53;0.90;;;;;;;;;;4914550;29;20032;-76
2023/03/28 03:14:21;;;;;;;2.33;0.90;;;;;;;;;;4912778;29;20036;-76
2023/03/28 03:16:47;;;;;;;1.98;0.85;;;;;;;;;;4919157;29;20055;-76
2023/03/28 03:19:13;;;;;;;4.32;0.90;;;;;;;;;;4910955;29;20458;-78
2023/03/28 03:21:40;;;;;;;2.97;0.80;;;;;;;;;;4921675;29;20076;-78
2023/03/28 03:24:08;;;;;;;3.95;1.02;;;;;;;;;;4915829;29;20554;-78
2023/03/28 03:26:34;;;;;;;0.95;0.65;;;;;;;;;;4914279;29;20023;-77
2023/03/28 03:29:01;;;;;;;2.15;0.90;;;;;;;;;;4914708;29;20039;-77
2023/03/28 03:31:28;;;;;;;2.20;0.80;;;;;;;;;;4915273;29;20776;-78
2023/03/28 03:33:54;;;;;;;1.77;0.80;;;;;;;;;;4914535;29;20102;-79
2023/03/28 03:36:20;;;;;;;2.25;0.90;;;;;;;;;;4914448;29;20032;-78
2023/03/28 03:38:46;;;;;;;2.40;0.88;;;;;;;;;;4919672;29;20036;-78
2023/03/28 03:41:12;;;;;;;1.58;0.80;;;;;;;;;;4921044;29;20046;-76
2023/03/28 03:43:38;;;;;;;2.30;0.70;;;;;;;;;;4918285;29;20028;-76
2023/03/28 03:46:04;;;;;;;1.88;0.88;;;;;;;;;;4912615;29;20504;-77
2023/03/28 03:48:30;;;;;;;0.98;0.65;;;;;;;;;;4916826;29;20126;-76
2023/03/28 03:50:56;;;;;;;1.70;0.70;;;;;;;;;;4913666;29;20035;-76
2023/03/28 03:53:23;;;;;;;1.60;0.65;;;;;;;;;;4914641;29;20485;-76
2023/03/28 03:55:49;;;;;;;1.63;0.70;;;;;;;;;;4915829;29;20033;-77
2023/03/28 03:58:15;;;;;;;1.65;0.70;;;;;;;;;;4907276;29;20446;-77
2023/03/28 04:00:43;;;;;;;2.28;0.80;;;;;;;;;;4917299;29;20397;-77
2023/03/28 04:03:09;;;;;;;3.20;0.73;;;;;;;;;;4921454;29;20028;-76
2023/03/28 04:05:35;;;;;;;2.08;0.50;;;;;;;;;;4909454;29;20029;-76
2023/03/28 04:08:01;;;;;;;2.85;0.90;;;;;;;;;;4914774;29;20489;-76
2023/03/28 04:10:27;;;;;;;2.15;1.00;;;;;;;;;;4905106;29;20508;-77
2023/03/28 04:12:53;;;;;;;1.73;0.80;;;;;;;;;;4907718;29;20029;-77
2023/03/28 04:15:19;;;;;;;2.58;0.82;;;;;;;;;;4918323;29;20032;-75
2023/03/28 04:17:45;;;;;;;2.45;0.95;;;;;;;;;;4909020;29;20486;-75
2023/03/28 04:20:12;;;;;;;3.28;1.05;;;;;;;;;;4904152;29;20416;-75
2023/03/28 04:22:38;;;;;;;3.70;1.25;;;;;;;;;;4920976;29;20024;-75
2023/03/28 04:25:05;;;;;;;3.00;1.23;;;;;;;;;;4906667;29;20427;-75
2023/03/28 04:27:31;;;;;;;2.65;1.20;;;;;;;;;;4919658;29;20092;-75
2023/03/28 04:29:59;;;;;;;2.42;1.08;;;;;;;;;;4907485;29;20490;-76
2023/03/28 04:32:25;;;;;;;1.60;0.88;;;;;;;;;;4909295;29;20478;-76
2023/03/28 04:34:51;;;;;;;2.65;1.00;;;;;;;;;;4906492;29;20060;-76
2023/03/28 04:37:17;;;;;;;1.98;0.80;;;;;;;;;;4909690;29;20061;-75
2023/03/28 04:39:46;;;;;;;1.08;0.68;;;;;;;;;;4914451;29;20051;-76
2023/03/28 04:42:15;;;;;;;1.90;0.88;;;;;;;;;;4902346;29;20482;-76
2023/03/28 04:44:41;;;;;;;3.60;0.73;;;;;;;;;;4908229;29;20033;-75
2023/03/28 04:47:10;;;;;;;2.70;0.60;;;;;;;;;;4910094;29;20036;-75
2023/03/28 04:49:36;;;;;;;1.50;0.50;;;;;;;;;;4903455;29;20039;-76
2023/03/28 04:52:02;;;;;;;0.98;0.63;;;;;;;;;;4905980;29;20096;-76
2023/03/28 04:54:28;;;;;;;2.40;0.80;;;;;;;;;;4913029;29;20020;-75
2023/03/28 04:56:54;;;;;;;2.83;0.88;;;;;;;;;;4907993;29;20104;-75
2023/03/28 04:59:20;;;;;;;1.67;0.75;;;;;;;;;;4905539;29;20035;-76
2023/03/28 05:01:49;;;;;;;2.63;0.80;;;;;;;;;;4910984;29;20060;-76
2023/03/28 05:04:20;;;;;;;2.08;0.73;;;;;;;;;;4909147;29;20719;-75
2023/03/28 05:06:48;;;;;;;3.10;0.65;;;;;;;;;;4907675;29;20029;-75
2023/03/28 05:09:15;;;;;;;1.67;0.80;;;;;;;;;;4902742;29;20017;-75
2023/03/28 05:11:41;;;;;;;3.75;0.70;;;;;;;;;;4908308;29;20032;-75
2023/03/28 05:14:08;;;;;;;1.95;0.60;;;;;;;;;;4917250;29;20032;-75
2023/03/28 05:16:34;;;;;;;2.10;0.60;;;;;;;;;;4914378;29;20040;-74
2023/03/28 05:19:00;;;;;;;2.03;0.75;;;;;;;;;;4916681;29;20036;-75
2023/03/28 05:21:26;;;;;;;2.72;0.80;;;;;;;;;;4913584;29;20028;-76
2023/03/28 05:23:52;;;;;;;1.63;0.80;;;;;;;;;;4915470;29;20072;-79
2023/03/28 05:26:18;;;;;;;2.90;0.70;;;;;;;;;;4910362;29;20031;-78
2023/03/28 05:28:45;;;;;;;3.10;0.77;;;;;;;;;;4909294;29;20032;-77
2023/03/28 05:31:11;;;;;;;2.33;1.08;;;;;;;;;;4911076;29;20047;-77
2023/03/28 05:33:37;;;;;;;2.25;1.33;;;;;;;;;;4919983;29;20028;-78
2023/03/28 05:36:04;;;;;;;5.78;1.73;;;;;;;;;;4920776;29;20493;-76
2023/03/28 05:38:32;;;;;;;3.33;1.60;;;;;;;;;;4908216;29;20035;-77
2023/03/28 05:40:58;;;;;;;2.97;1.27;;;;;;;;;;4915461;29;20079;-77
2023/03/28 05:43:24;;;;;;;2.67;1.10;;;;;;;;;;4920711;29;20448;-76
2023/03/28 05:45:50;;;;;;;6.15;1.60;;;;;;;;;;4916285;29;20036;-75
2023/03/28 05:48:17;;;;;;;3.17;1.45;;;;;;;;;;4915914;29;20063;-76
2023/03/28 05:50:46;;;;;;;1.98;1.33;;;;;;;;;;4919233;29;20504;-76
2023/03/28 05:53:12;;;;;;;2.33;1.10;;;;;;;;;;4919915;29;20059;-76
2023/03/28 05:55:38;;;;;;;3.67;1.38;;;;;;;;;;4920500;29;20501;-76
2023/03/28 05:58:05;;;;;;;5.30;1.77;;;;;;;;;;4922091;29;20444;-76
2023/03/28 06:00:31;;;;;;;6.93;2.30;;;;;;;;;;4906184;29;20033;-76
2023/03/28 06:02:57;;;;;;;5.60;1.73;;;;;;;;;;4924245;29;20382;-75
2023/03/28 06:05:24;;;;;;;5.95;1.67;;;;;;;;;;4922678;29;20082;-76
2023/03/28 06:07:50;;;;;;;2.08;1.20;;;;;;;;;;4915674;29;20040;-77
2023/03/28 06:10:16;;;;;;;2.83;1.10;;;;;;;;;;4922919;29;20110;-76
2023/03/28 06:12:42;;;;;;;4.75;1.10;;;;;;;;;;4922315;29;20075;-75
2023/03/28 06:15:08;;;;;;;1.98;1.13;;;;;;;;;;4907897;29;20051;-77
2023/03/28 06:17:35;;;;;;;4.93;1.45;;;;;;;;;;4916791;29;20069;-77
2023/03/28 06:20:01;;;;;;;2.70;1.13;;;;;;;;;;4916214;29;20035;-77
2023/03/28 06:22:27;;;;;;;4.90;1.40;;;;;;;;;;4914750;29;20489;-75
2023/03/28 06:24:53;;;;;;;3.45;1.20;;;;;;;;;;4916944;29;20051;-76
2023/03/28 06:27:19;;;;;;;2.08;1.00;;;;;;;;;;4923409;29;20024;-79
2023/03/28 06:29:45;;;;;;;1.88;1.00;;;;;;;;;;4910985;29;20028;-79
2023/03/28 06:32:11;;;;;;;3.75;1.10;;;;;;;;;;4920925;29;20032;-77
2023/03/28 06:34:37;;;;;;;3.53;1.20;;;;;;;;;;4904744;29;20024;-76
2023/03/28 06:37:03;;;;;;;4.05;1.10;;;;;;;;;;4918357;29;20036;-77
2023/03/28 06:39:29;;;;;;;2.60;1.02;;;;;;;;;;4923341;29;20103;-76
2023/03/28 06:41:56;;;;;;;2.58;1.05;;;;;;;;;;4922079;29;20080;-76
2023/03/28 06:44:22;;;;;;;3.03;0.98;;;;;;;;;;4923537;29;20016;-77
2023/03/28 06:46:48;;;;;;;2.95;1.00;;;;;;;;;;4919351;29;20031;-77
2023/03/28 06:49:14;;;;;;;1.38;0.75;;;;;;;;;;4919410;29;20056;-76
2023/03/28 06:51:40;;;;;;;2.65;0.90;;;;;;;;;;4916940;29;20064;-75
2023/03/28 06:54:06;;;;;;;5.55;1.40;;;;;;;;;;4908662;29;20051;-76
2023/03/28 06:56:32;;;;;;;4.10;1.60;;;;;;;;;;4917576;29;20416;-76
2023/03/28 06:58:59;;;;;;;2.08;1.25;;;;;;;;;;4916672;29;20041;-77
2023/03/28 07:01:25;;;;;;;4.15;1.10;;;;;;;;;;4923381;29;20031;-76
2023/03/28 07:03:51;;;;;;;3.85;1.30;;;;;;;;;;4923210;29;20020;-76
2023/03/28 07:06:17;;;;;;;2.15;0.90;;;;;;;;;;4921745;29;20163;-76
2023/03/28 07:08:43;;;;;;;2.30;0.90;;;;;;;;;;4923098;29;20137;-77
2023/03/28 07:11:09;;;;;;;2.40;0.75;;;;;;;;;;4922003;29;20039;-76
2023/03/28 07:13:35;;;;;;;2.10;0.90;;;;;;;;;;4915038;29;20417;-76
2023/03/28 07:16:02;;;;;;;2.35;0.82;;;;;;;;;;4911860;29;20108;-76
2023/03/28 07:18:28;;;;;;;2.67;0.80;;;;;;;;;;4919876;29;20036;-76
2023/03/28 07:20:54;;;;;;;3.05;0.90;;;;;;;;;;4914548;29;20025;-76
2023/03/28 07:23:21;;;;;;;1.58;0.88;;;;;;;;;;4918461;29;20036;-77
2023/03/28 07:25:47;;;;;;;2.78;0.75;;;;;;;;;;4922595;29;20477;-77
2023/03/28 07:28:13;;;;;;;3.25;0.82;;;;;;;;;;4919294;29;20088;-76
2023/03/28 07:30:39;;;;;;;2.10;0.82;;;;;;;;;;4920151;29;20066;-76
2023/03/28 07:33:05;;;;;;;2.08;0.90;;;;;;;;;;4922747;29;20238;-72
2023/03/28 07:35:31;;;;;;;3.03;0.80;;;;;;;;;;4903408;29;20053;-72
2023/03/28 07:37:58;;;;;;;2.55;0.85;;;;;;;;;;4916388;29;20542;-72
2023/03/28 07:40:24;;;;;;;3.45;0.70;;;;;;;;;;4919567;29;20389;-72
2023/03/28 07:42:50;;;;;;;2.42;0.90;;;;;;;;;;4919333;29;20429;-71
2023/03/28 07:45:16;;;;;;;2.50;0.88;;;;;;;;;;4915080;29;20096;-71
2023/03/28 07:47:42;;;;;;;1.80;0.88;;;;;;;;;;4922152;29;20505;-76
2023/03/28 07:50:09;;;;;;;4.57;1.17;;;;;;;;;;4922489;29;20047;-71
2023/03/28 07:52:35;;;;;;;3.53;0.95;;;;;;;;;;4920830;29;20043;-70
2023/03/28 07:55:01;;;;;;;3.33;0.95;;;;;;;;;;4922234;29;20020;-70
2023/03/28 07:57:27;;;;;;;2.60;1.00;;;;;;;;;;4907218;29;20043;-70
2023/03/28 07:59:54;;;;;;;5.35;0.95;;;;;;;;;;4913670;29;20449;-70
2023/03/28 08:02:21;;;;;;;2.53;0.90;;;;;;;;;;4921930;29;20488;-71
2023/03/28 08:04:48;;;;;;;4.03;0.80;;;;;;;;;;4913791;29;20494;-71
2023/03/28 08:07:14;;;;;;;1.83;0.65;;;;;;;;;;4916391;29;20036;-74
2023/03/28 08:09:40;;;;;;;1.67;0.70;;;;;;;;;;4920853;29;20036;-72
2023/03/28 08:12:06;;;;;;;2.90;0.75;;;;;;;;;;4921612;29;20032;-74
2023/03/28 08:14:32;;;;;;;1.83;0.90;;;;;;;;;;4919893;29;20028;-72
2023/03/28 08:16:58;;;;;;;1.65;0.82;;;;;;;;;;4918159;29;20040;-72
2023/03/28 08:19:25;;;;;;;2.15;0.90;;;;;;;;;;4919036;29;20035;-70
2023/03/28 08:21:52;;;;;;;1.70;0.80;;;;;;;;;;4910925;29;20600;-70
2023/03/28 08:24:18;;;;;;;3.03;0.70;;;;;;;;;;4906092;29;20029;-73
2023/03/28 08:26:45;;;;;;;1.73;0.60;;;;;;;;;;4910825;29;20032;-71
2023/03/28 08:29:11;;;;;;;3.95;0.70;;;;;;;;;;4920298;29;20036;-74
2023/03/28 08:31:37;;;;;;;3.05;0.80;;;;;;;;;;4920322;29;20028;-75
2023/03/28 08:34:03;;;;;;;1.55;0.80;;;;;;;;;;4912765;29;20062;-74
2023/03/28 08:36:30;;;;;;;1.65;0.80;;;;;;;;;;4902442;29;20059;-74
2023/03/28 08:38:59;;;;;;;2.33;0.75;;;;;;;;;;4914192;29;20040;-74
2023/03/28 08:41:44;;;;;;;3.42;0.82;;;;;;;;;;4916550;29;20020;-71
2023/03/28 08:44:13;;;;;;;2.78;0.73;;;;;;;;;;4913674;29;20107;-73
2023/03/28 08:46:41;;;;;;;2.53;0.80;;;;;;;;;;4914859;29;20449;-73
2023/03/28 08:49:10;;;;;;;1.80;1.00;;;;;;;;;;4917017;29;20081;-73
2023/03/28 08:51:42;;;;;;;3.17;1.00;;;;;;;;;;4910682;29;20032;-72
2023/03/28 08:54:11;;;;;;;2.83;1.00;;;;;;;;;;4921391;29;20111;-73
2023/03/28 08:56:49;;;;;;;3.75;1.48;;;;;;;;;;4919742;29;20035;-74
2023/03/28 08:59:16;;;;;;;2.58;1.10;;;;;;;;;;4917250;29;20028;-73
2023/03/28 09:01:43;;;;;;;2.53;1.05;;;;;;;;;;4921095;29;20092;-73
2023/03/28 09:04:19;;;;;;;3.55;1.00;;;;;;;;;;4914518;29;20028;-69
2023/03/28 09:06:46;;;;;;;4.15;1.50;;;;;;;;;;4910972;29;20029;-70
2023/03/28 09:09:18;;;;;;;2.63;1.10;;;;;;;;;;4908238;29;20032;-71
2023/03/28 09:11:44;;;;;;;2.30;0.70;;;;;;;;;;4914990;29;20407;-69
2023/03/28 09:14:23;;;;;;;2.72;1.00;;;;;;;;;;4916036;29;20110;-70
2023/03/28 09:17:05;;;;;;;2.13;0.80;;;;;;;;;;4916523;29;20043;-72
2023/03/28 09:19:38;;;;;;;3.80;1.45;;;;;;;;;;4918957;29;20032;-71
2023/03/28 09:22:21;;;;;;;4.70;1.00;;;;;;;;;;4904643;29;20088;-71
2023/03/28 09:25:06;;;;;;;2.90;0.80;;;;;;;;;;4901825;29;20516;-73
2023/03/28 09:27:33;;;;;;;3.35;1.10;;;;;;;;;;4910037;29;20164;-73
2023/03/28 09:30:19;;;;;;;3.03;0.98;;;;;;;;;;4904924;29;20036;-73
2023/03/28 09:32:46;;;;;;;2.70;0.90;;;;;;;;;;4909984;29;20064;-72
2023/03/28 09:35:17;;;;;;;2.25;0.98;;;10.80;82.80;;;;;;4903405;29;20025;-68
